sensor_id;sensor_type;location;lat;lon;timestamp;temperature;humidity
31819;DHT22;18384;48.860;9.188;2023-10-09T00:01:43;15.20;96.90
31819;DHT22;18384;48.860;9.188;2023-10-09T00:04:10;15.20;96.80
31819;DHT22;18384;48.860;9.188;2023-10-09T00:06:37;15.20;96.80
31819;DHT22;18384;48.860;9.188;2023-10-09T00:09:05;15.20;97.00
31819;DHT22;18384;48.860;9.188;2023-10-09T00:11:56;15.20;96.90
31819;DHT22;18384;48.860;9.188;2023-10-09T00:14:27;15.20;97.00
31819;DHT22;18384;48.860;9.188;2023-10-09T00:16:59;15.20;96.90
31819;DHT22;18384;48.860;9.188;2023-10-09T00:21:17;15.20;96.90
31819;DHT22;18384;48.860;9.188;2023-10-09T00:23:47;15.20;97.00
31819;DHT22;18384;48.860;9.188;2023-10-09T00:26:25;15.10;97.10
31819;DHT22;18384;48.860;9.188;2023-10-09T00:28:52;15.10;97.00
31819;DHT22;18384;48.860;9.188;2023-10-09T00:31:18;15.20;97.00
31819;DHT22;18384;48.860;9.188;2023-10-09T00:34:00;15.10;97.00
31819;DHT22;18384;48.860;9.188;2023-10-09T00:36:41;15.10;97.00
31819;DHT22;18384;48.860;9.188;2023-10-09T00:39:16;15.10;97.00
31819;DHT22;18384;48.860;9.188;2023-10-09T00:41:59;15.10;96.90
31819;DHT22;18384;48.860;9.188;2023-10-09T00:44:27;15.10;97.00
31819;DHT22;18384;48.860;9.188;2023-10-09T00:47:08;15.10;96.90
31819;DHT22;18384;48.860;9.188;2023-10-09T00:49:57;15.20;96.80
31819;DHT22;18384;48.860;9.188;2023-10-09T00:52:34;15.20;96.60
31819;DHT22;18384;48.860;9.188;2023-10-09T00:55:18;15.20;96.70
31819;DHT22;18384;48.860;9.188;2023-10-09T00:57:53;15.20;96.90
31819;DHT22;18384;48.860;9.188;2023-10-09T01:00:26;15.20;97.00
31819;DHT22;18384;48.860;9.188;2023-10-09T01:03:12;15.20;97.00
31819;DHT22;18384;48.860;9.188;2023-10-09T01:05:58;15.20;96.80
31819;DHT22;18384;48.860;9.188;2023-10-09T01:09:26;15.20;97.00
31819;DHT22;18384;48.860;9.188;2023-10-09T01:11:53;15.20;96.80
31819;DHT22;18384;48.860;9.188;2023-10-09T01:14:30;15.20;97.00
31819;DHT22;18384;48.860;9.188;2023-10-09T01:17:02;15.20;96.70
31819;DHT22;18384;48.860;9.188;2023-10-09T01:19:36;15.30;96.60
31819;DHT22;18384;48.860;9.188;2023-10-09T01:22:02;15.20;96.70
31819;DHT22;18384;48.860;9.188;2023-10-09T01:24:42;15.20;96.80
31819;DHT22;18384;48.860;9.188;2023-10-09T01:27:09;15.30;96.80
31819;DHT22;18384;48.860;9.188;2023-10-09T01:29:41;15.30;96.70
31819;DHT22;18384;48.860;9.188;2023-10-09T01:32:08;15.30;96.70
31819;DHT22;18384;48.860;9.188;2023-10-09T01:34:42;15.80;96.80
31819;DHT22;18384;48.860;9.188;2023-10-09T01:37:12;15.30;96.80
31819;DHT22;18384;48.860;9.188;2023-10-09T01:39:56;15.30;96.80
31819;DHT22;18384;48.860;9.188;2023-10-09T01:42:25;15.20;96.80
31819;DHT22;18384;48.860;9.188;2023-10-09T01:45:00;15.20;96.80
31819;DHT22;18384;48.860;9.188;2023-10-09T01:47:41;15.20;96.90
31819;DHT22;18384;48.860;9.188;2023-10-09T01:50:17;15.20;96.80
31819;DHT22;18384;48.860;9.188;2023-10-09T01:53:46;15.30;96.70
31819;DHT22;18384;48.860;9.188;2023-10-09T01:56:19;15.30;96.60
31819;DHT22;18384;48.860;9.188;2023-10-09T01:58:46;15.30;96.50
31819;DHT22;18384;48.860;9.188;2023-10-09T02:01:13;15.30;96.50
31819;DHT22;18384;48.860;9.188;2023-10-09T02:03:41;15.30;96.40
31819;DHT22;18384;48.860;9.188;2023-10-09T02:06:10;15.40;96.40
31819;DHT22;18384;48.860;9.188;2023-10-09T02:08:53;15.30;96.40
31819;DHT22;18384;48.860;9.188;2023-10-09T02:11:20;15.30;96.20
31819;DHT22;18384;48.860;9.188;2023-10-09T02:14:02;15.30;96.40
31819;DHT22;18384;48.860;9.188;2023-10-09T02:16:30;15.30;96.50
31819;DHT22;18384;48.860;9.188;2023-10-09T02:19:07;15.30;96.40
31819;DHT22;18384;48.860;9.188;2023-10-09T02:21:54;15.30;96.30
31819;DHT22;18384;48.860;9.188;2023-10-09T02:24:23;15.30;96.50
31819;DHT22;18384;48.860;9.188;2023-10-09T02:27:19;15.30;96.30
31819;DHT22;18384;48.860;9.188;2023-10-09T02:30:04;15.30;96.50
31819;DHT22;18384;48.860;9.188;2023-10-09T02:32:42;15.40;96.30
31819;DHT22;18384;48.860;9.188;2023-10-09T02:35:12;15.30;96.40
31819;DHT22;18384;48.860;9.188;2023-10-09T02:37:54;15.40;96.40
31819;DHT22;18384;48.860;9.188;2023-10-09T02:40:27;15.30;96.30
31819;DHT22;18384;48.860;9.188;2023-10-09T02:42:58;15.30;96.30
31819;DHT22;18384;48.860;9.188;2023-10-09T02:45:24;15.40;96.40
31819;DHT22;18384;48.860;9.188;2023-10-09T02:47:50;15.30;96.40
31819;DHT22;18384;48.860;9.188;2023-10-09T02:50:17;15.30;96.40
31819;DHT22;18384;48.860;9.188;2023-10-09T02:52:49;15.40;96.30
31819;DHT22;18384;48.860;9.188;2023-10-09T02:55:24;15.30;96.50
31819;DHT22;18384;48.860;9.188;2023-10-09T02:57:54;15.30;96.40
31819;DHT22;18384;48.860;9.188;2023-10-09T03:00:33;15.30;96.30
31819;DHT22;18384;48.860;9.188;2023-10-09T03:03:03;15.30;96.20
31819;DHT22;18384;48.860;9.188;2023-10-09T03:05:33;15.30;96.20
31819;DHT22;18384;48.860;9.188;2023-10-09T03:07:59;15.30;96.20
31819;DHT22;18384;48.860;9.188;2023-10-09T03:10:25;15.30;96.10
31819;DHT22;18384;48.860;9.188;2023-10-09T03:12:52;15.30;96.00
31819;DHT22;18384;48.860;9.188;2023-10-09T03:15:21;15.30;95.90
31819;DHT22;18384;48.860;9.188;2023-10-09T03:17:48;15.30;96.00
31819;DHT22;18384;48.860;9.188;2023-10-09T03:20:14;15.30;95.90
31819;DHT22;18384;48.860;9.188;2023-10-09T03:22:45;15.30;95.80
31819;DHT22;18384;48.860;9.188;2023-10-09T03:25:13;15.30;95.80
31819;DHT22;18384;48.860;9.188;2023-10-09T03:27:43;15.30;96.00
31819;DHT22;18384;48.860;9.188;2023-10-09T03:30:16;15.30;95.80
31819;DHT22;18384;48.860;9.188;2023-10-09T03:32:50;15.30;96.20
31819;DHT22;18384;48.860;9.188;2023-10-09T03:35:18;15.30;96.10
31819;DHT22;18384;48.860;9.188;2023-10-09T03:37:55;15.30;96.10
31819;DHT22;18384;48.860;9.188;2023-10-09T03:40:24;15.30;95.60
31819;DHT22;18384;48.860;9.188;2023-10-09T03:42:51;15.30;95.70
31819;DHT22;18384;48.860;9.188;2023-10-09T03:45:19;15.30;95.80
31819;DHT22;18384;48.860;9.188;2023-10-09T03:47:56;15.30;95.90
31819;DHT22;18384;48.860;9.188;2023-10-09T03:51:09;15.40;96.00
31819;DHT22;18384;48.860;9.188;2023-10-09T03:53:39;15.30;95.70
31819;DHT22;18384;48.860;9.188;2023-10-09T03:56:06;15.30;95.50
31819;DHT22;18384;48.860;9.188;2023-10-09T03:58:45;15.30;95.50
31819;DHT22;18384;48.860;9.188;2023-10-09T04:01:14;15.30;95.80
31819;DHT22;18384;48.860;9.188;2023-10-09T04:04:41;15.30;95.70
31819;DHT22;18384;48.860;9.188;2023-10-09T04:07:13;15.30;95.60
31819;DHT22;18384;48.860;9.188;2023-10-09T04:09:42;15.30;95.60
31819;DHT22;18384;48.860;9.188;2023-10-09T04:12:13;15.30;95.60
31819;DHT22;18384;48.860;9.188;2023-10-09T04:14:46;15.30;95.80
31819;DHT22;18384;48.860;9.188;2023-10-09T04:17:16;15.30;95.70
31819;DHT22;18384;48.860;9.188;2023-10-09T04:20:04;15.20;95.80
31819;DHT22;18384;48.860;9.188;2023-10-09T04:26:02;15.20;95.80
31819;DHT22;18384;48.860;9.188;2023-10-09T04:28:39;15.20;95.70
31819;DHT22;18384;48.860;9.188;2023-10-09T04:31:07;15.20;95.60
31819;DHT22;18384;48.860;9.188;2023-10-09T04:33:33;15.10;95.80
31819;DHT22;18384;48.860;9.188;2023-10-09T04:36:09;15.10;95.40
31819;DHT22;18384;48.860;9.188;2023-10-09T04:38:48;15.10;95.40
31819;DHT22;18384;48.860;9.188;2023-10-09T04:41:22;15.10;95.60
31819;DHT22;18384;48.860;9.188;2023-10-09T04:43:59;15.10;95.70
31819;DHT22;18384;48.860;9.188;2023-10-09T04:46:48;15.10;95.60
31819;DHT22;18384;48.860;9.188;2023-10-09T04:49:34;15.10;96.10
31819;DHT22;18384;48.860;9.188;2023-10-09T04:53:53;15.10;95.60
31819;DHT22;18384;48.860;9.188;2023-10-09T04:56:37;15.00;96.00
31819;DHT22;18384;48.860;9.188;2023-10-09T04:59:19;15.10;96.10
31819;DHT22;18384;48.860;9.188;2023-10-09T05:01:53;15.10;95.90
31819;DHT22;18384;48.860;9.188;2023-10-09T05:04:30;15.10;96.00
31819;DHT22;18384;48.860;9.188;2023-10-09T05:07:07;15.10;95.80
31819;DHT22;18384;48.860;9.188;2023-10-09T05:10:15;15.10;95.90
31819;DHT22;18384;48.860;9.188;2023-10-09T05:12:43;15.10;95.60
31819;DHT22;18384;48.860;9.188;2023-10-09T05:15:13;15.10;95.50
31819;DHT22;18384;48.860;9.188;2023-10-09T05:17:40;15.10;95.50
31819;DHT22;18384;48.860;9.188;2023-10-09T05:20:17;15.10;95.40
31819;DHT22;18384;48.860;9.188;2023-10-09T05:24:02;15.10;95.30
31819;DHT22;18384;48.860;9.188;2023-10-09T05:26:49;15.10;95.00
31819;DHT22;18384;48.860;9.188;2023-10-09T05:29:23;15.10;95.10
31819;DHT22;18384;48.860;9.188;2023-10-09T05:32:14;15.10;95.10
31819;DHT22;18384;48.860;9.188;2023-10-09T05:34:53;15.10;95.60
31819;DHT22;18384;48.860;9.188;2023-10-09T05:37:52;15.20;95.60
31819;DHT22;18384;48.860;9.188;2023-10-09T05:40:26;15.20;95.70
31819;DHT22;18384;48.860;9.188;2023-10-09T05:42:57;15.10;95.70
31819;DHT22;18384;48.860;9.188;2023-10-09T05:45:26;15.20;95.40
31819;DHT22;18384;48.860;9.188;2023-10-09T05:48:10;15.10;95.50
31819;DHT22;18384;48.860;9.188;2023-10-09T05:51:18;15.10;95.70
31819;DHT22;18384;48.860;9.188;2023-10-09T05:55:13;15.10;95.30
31819;DHT22;18384;48.860;9.188;2023-10-09T05:58:14;15.20;95.80
31819;DHT22;18384;48.860;9.188;2023-10-09T06:00:58;15.20;95.50
31819;DHT22;18384;48.860;9.188;2023-10-09T06:04:42;15.20;96.00
31819;DHT22;18384;48.860;9.188;2023-10-09T06:07:21;15.20;96.10
31819;DHT22;18384;48.860;9.188;2023-10-09T06:10:06;15.20;95.80
31819;DHT22;18384;48.860;9.188;2023-10-09T06:12:43;15.20;95.80
31819;DHT22;18384;48.860;9.188;2023-10-09T06:15:18;15.30;95.60
31819;DHT22;18384;48.860;9.188;2023-10-09T06:17:57;15.30;95.60
31819;DHT22;18384;48.860;9.188;2023-10-09T06:20:51;15.30;95.10
31819;DHT22;18384;48.860;9.188;2023-10-09T06:24:51;15.30;95.00
31819;DHT22;18384;48.860;9.188;2023-10-09T06:27:25;15.40;95.30
31819;DHT22;18384;48.860;9.188;2023-10-09T06:30:24;15.40;96.20
31819;DHT22;18384;48.860;9.188;2023-10-09T06:32:52;15.40;95.30
31819;DHT22;18384;48.860;9.188;2023-10-09T06:35:46;15.40;95.40
31819;DHT22;18384;48.860;9.188;2023-10-09T06:38:20;15.50;95.30
31819;DHT22;18384;48.860;9.188;2023-10-09T06:40:52;15.50;95.10
31819;DHT22;18384;48.860;9.188;2023-10-09T06:43:27;15.50;95.20
31819;DHT22;18384;48.860;9.188;2023-10-09T06:45:57;15.50;95.40
31819;DHT22;18384;48.860;9.188;2023-10-09T06:48:45;15.50;94.90
31819;DHT22;18384;48.860;9.188;2023-10-09T06:51:13;15.50;94.50
31819;DHT22;18384;48.860;9.188;2023-10-09T06:54:34;15.60;94.80
31819;DHT22;18384;48.860;9.188;2023-10-09T06:57:03;15.60;95.10
31819;DHT22;18384;48.860;9.188;2023-10-09T06:59:38;15.70;95.10
31819;DHT22;18384;48.860;9.188;2023-10-09T07:02:54;15.70;95.10
31819;DHT22;18384;48.860;9.188;2023-10-09T07:05:21;15.70;94.80
31819;DHT22;18384;48.860;9.188;2023-10-09T07:07:57;15.80;94.60
31819;DHT22;18384;48.860;9.188;2023-10-09T07:10:54;15.90;94.80
31819;DHT22;18384;48.860;9.188;2023-10-09T07:13:46;15.90;94.80
31819;DHT22;18384;48.860;9.188;2023-10-09T07:16:22;16.00;94.50
31819;DHT22;18384;48.860;9.188;2023-10-09T07:18:57;16.00;93.90
31819;DHT22;18384;48.860;9.188;2023-10-09T07:21:36;16.10;94.20
31819;DHT22;18384;48.860;9.188;2023-10-09T07:24:05;16.20;94.00
31819;DHT22;18384;48.860;9.188;2023-10-09T07:26:42;16.20;94.00
31819;DHT22;18384;48.860;9.188;2023-10-09T07:29:20;16.30;94.20
31819;DHT22;18384;48.860;9.188;2023-10-09T07:31:52;16.30;93.60
31819;DHT22;18384;48.860;9.188;2023-10-09T07:34:37;16.30;93.80
31819;DHT22;18384;48.860;9.188;2023-10-09T07:37:27;16.40;94.00
31819;DHT22;18384;48.860;9.188;2023-10-09T07:39:58;16.40;93.50
31819;DHT22;18384;48.860;9.188;2023-10-09T07:42:25;16.50;93.50
31819;DHT22;18384;48.860;9.188;2023-10-09T07:45:10;16.50;93.50
31819;DHT22;18384;48.860;9.188;2023-10-09T07:48:21;16.60;93.40
31819;DHT22;18384;48.860;9.188;2023-10-09T07:50:51;16.60;93.60
31819;DHT22;18384;48.860;9.188;2023-10-09T07:53:23;16.70;94.10
31819;DHT22;18384;48.860;9.188;2023-10-09T07:55:55;16.70;93.70
31819;DHT22;18384;48.860;9.188;2023-10-09T07:58:32;16.80;93.30
31819;DHT22;18384;48.860;9.188;2023-10-09T08:01:12;16.80;93.40
31819;DHT22;18384;48.860;9.188;2023-10-09T08:03:51;16.90;93.10
31819;DHT22;18384;48.860;9.188;2023-10-09T08:06:26;17.00;93.00
31819;DHT22;18384;48.860;9.188;2023-10-09T08:09:08;17.10;93.10
31819;DHT22;18384;48.860;9.188;2023-10-09T08:11:53;17.10;93.10
31819;DHT22;18384;48.860;9.188;2023-10-09T08:14:30;17.20;92.90
31819;DHT22;18384;48.860;9.188;2023-10-09T08:17:14;17.30;93.30
31819;DHT22;18384;48.860;9.188;2023-10-09T08:19:50;17.30;93.30
31819;DHT22;18384;48.860;9.188;2023-10-09T08:22:28;17.40;93.30
31819;DHT22;18384;48.860;9.188;2023-10-09T08:25:16;17.50;93.00
31819;DHT22;18384;48.860;9.188;2023-10-09T08:28:04;17.60;92.80
31819;DHT22;18384;48.860;9.188;2023-10-09T08:37:18;17.60;92.60
31819;DHT22;18384;48.860;9.188;2023-10-09T08:39:50;17.80;92.70
31819;DHT22;18384;48.860;9.188;2023-10-09T08:42:17;17.90;92.10
31819;DHT22;18384;48.860;9.188;2023-10-09T08:44:44;17.90;92.10
31819;DHT22;18384;48.860;9.188;2023-10-09T08:47:15;17.90;92.60
31819;DHT22;18384;48.860;9.188;2023-10-09T08:49:41;18.00;92.20
31819;DHT22;18384;48.860;9.188;2023-10-09T08:52:08;18.00;92.00
31819;DHT22;18384;48.860;9.188;2023-10-09T08:54:36;18.10;92.00
31819;DHT22;18384;48.860;9.188;2023-10-09T08:57:02;18.20;92.40
31819;DHT22;18384;48.860;9.188;2023-10-09T08:59:28;18.20;92.30
31819;DHT22;18384;48.860;9.188;2023-10-09T09:01:55;18.20;92.40
31819;DHT22;18384;48.860;9.188;2023-10-09T09:04:36;18.30;92.70
31819;DHT22;18384;48.860;9.188;2023-10-09T09:07:04;18.30;92.30
31819;DHT22;18384;48.860;9.188;2023-10-09T09:09:32;18.40;92.50
31819;DHT22;18384;48.860;9.188;2023-10-09T09:12:00;18.50;91.90
31819;DHT22;18384;48.860;9.188;2023-10-09T09:14:36;18.50;92.00
31819;DHT22;18384;48.860;9.188;2023-10-09T09:17:04;18.60;91.50
31819;DHT22;18384;48.860;9.188;2023-10-09T09:19:37;18.70;91.20
31819;DHT22;18384;48.860;9.188;2023-10-09T09:22:04;18.80;91.40
31819;DHT22;18384;48.860;9.188;2023-10-09T09:24:40;18.90;91.10
31819;DHT22;18384;48.860;9.188;2023-10-09T09:27:44;18.90;91.10
31819;DHT22;18384;48.860;9.188;2023-10-09T09:30:25;19.00;91.90
31819;DHT22;18384;48.860;9.188;2023-10-09T09:33:22;19.00;92.40
31819;DHT22;18384;48.860;9.188;2023-10-09T09:36:06;19.10;92.60
31819;DHT22;18384;48.860;9.188;2023-10-09T09:38:34;19.20;92.40
31819;DHT22;18384;48.860;9.188;2023-10-09T09:41:08;19.30;92.70
31819;DHT22;18384;48.860;9.188;2023-10-09T09:43:36;19.40;92.80
31819;DHT22;18384;48.860;9.188;2023-10-09T09:46:07;19.50;92.80
31819;DHT22;18384;48.860;9.188;2023-10-09T09:48:40;19.60;92.80
31819;DHT22;18384;48.860;9.188;2023-10-09T09:51:15;19.80;92.90
31819;DHT22;18384;48.860;9.188;2023-10-09T09:53:43;19.90;92.60
31819;DHT22;18384;48.860;9.188;2023-10-09T09:56:18;20.00;92.00
31819;DHT22;18384;48.860;9.188;2023-10-09T09:58:49;20.10;92.30
31819;DHT22;18384;48.860;9.188;2023-10-09T10:01:21;20.30;92.40
31819;DHT22;18384;48.860;9.188;2023-10-09T10:04:12;20.40;92.00
31819;DHT22;18384;48.860;9.188;2023-10-09T10:06:47;20.50;91.50
31819;DHT22;18384;48.860;9.188;2023-10-09T10:09:40;21.70;91.10
31819;DHT22;18384;48.860;9.188;2023-10-09T10:12:12;20.70;90.90
31819;DHT22;18384;48.860;9.188;2023-10-09T10:14:58;20.80;90.90
31819;DHT22;18384;48.860;9.188;2023-10-09T10:17:31;20.90;90.70
31819;DHT22;18384;48.860;9.188;2023-10-09T10:20:06;21.00;89.90
31819;DHT22;18384;48.860;9.188;2023-10-09T10:24:42;21.10;90.30
31819;DHT22;18384;48.860;9.188;2023-10-09T10:27:19;21.20;90.40
31819;DHT22;18384;48.860;9.188;2023-10-09T10:36:41;21.40;91.20
31819;DHT22;18384;48.860;9.188;2023-10-09T10:39:09;21.60;90.60
31819;DHT22;18384;48.860;9.188;2023-10-09T10:42:25;21.70;90.60
31819;DHT22;18384;48.860;9.188;2023-10-09T10:45:01;21.70;90.60
31819;DHT22;18384;48.860;9.188;2023-10-09T10:47:59;21.80;90.30
31819;DHT22;18384;48.860;9.188;2023-10-09T10:50:32;21.80;90.10
31819;DHT22;18384;48.860;9.188;2023-10-09T10:53:11;21.80;90.00
31819;DHT22;18384;48.860;9.188;2023-10-09T10:55:58;21.80;90.40
31819;DHT22;18384;48.860;9.188;2023-10-09T10:58:54;21.80;90.90
31819;DHT22;18384;48.860;9.188;2023-10-09T11:02:21;21.80;91.10
31819;DHT22;18384;48.860;9.188;2023-10-09T11:04:53;21.80;91.60
31819;DHT22;18384;48.860;9.188;2023-10-09T11:07:40;21.90;90.80
31819;DHT22;18384;48.860;9.188;2023-10-09T11:10:07;21.90;91.00
31819;DHT22;18384;48.860;9.188;2023-10-09T11:12:53;22.00;90.90
31819;DHT22;18384;48.860;9.188;2023-10-09T11:15:39;22.10;89.30
31819;DHT22;18384;48.860;9.188;2023-10-09T11:18:22;22.20;85.50
31819;DHT22;18384;48.860;9.188;2023-10-09T11:20:54;22.30;84.90
31819;DHT22;18384;48.860;9.188;2023-10-09T11:24:22;22.30;84.30
31819;DHT22;18384;48.860;9.188;2023-10-09T11:26:51;22.20;83.90
31819;DHT22;18384;48.860;9.188;2023-10-09T11:29:22;22.20;82.10
31819;DHT22;18384;48.860;9.188;2023-10-09T11:32:05;22.00;81.80
31819;DHT22;18384;48.860;9.188;2023-10-09T11:34:35;21.90;82.00
31819;DHT22;18384;48.860;9.188;2023-10-09T11:37:13;21.80;81.90
31819;DHT22;18384;48.860;9.188;2023-10-09T11:40:05;21.70;82.40
31819;DHT22;18384;48.860;9.188;2023-10-09T11:42:49;21.70;82.80
31819;DHT22;18384;48.860;9.188;2023-10-09T11:45:23;21.70;83.60
31819;DHT22;18384;48.860;9.188;2023-10-09T11:47:54;22.60;83.50
31819;DHT22;18384;48.860;9.188;2023-10-09T11:53:56;21.70;84.00
31819;DHT22;18384;48.860;9.188;2023-10-09T11:56:24;21.70;86.40
31819;DHT22;18384;48.860;9.188;2023-10-09T11:58:53;21.70;84.20
31819;DHT22;18384;48.860;9.188;2023-10-09T12:01:20;21.70;81.60
31819;DHT22;18384;48.860;9.188;2023-10-09T12:03:47;21.70;82.10
31819;DHT22;18384;48.860;9.188;2023-10-09T12:06:17;21.70;82.60
31819;DHT22;18384;48.860;9.188;2023-10-09T12:08:47;21.80;83.40
31819;DHT22;18384;48.860;9.188;2023-10-09T12:11:15;21.70;81.70
31819;DHT22;18384;48.860;9.188;2023-10-09T12:13:49;21.80;80.90
31819;DHT22;18384;48.860;9.188;2023-10-09T12:16:15;21.90;81.10
31819;DHT22;18384;48.860;9.188;2023-10-09T12:18:41;21.90;80.20
31819;DHT22;18384;48.860;9.188;2023-10-09T12:21:08;21.80;80.20
31819;DHT22;18384;48.860;9.188;2023-10-09T12:23:41;21.90;79.10
31819;DHT22;18384;48.860;9.188;2023-10-09T12:26:10;21.90;78.50
31819;DHT22;18384;48.860;9.188;2023-10-09T12:28:40;22.00;77.80
31819;DHT22;18384;48.860;9.188;2023-10-09T12:31:15;22.10;78.10
31819;DHT22;18384;48.860;9.188;2023-10-09T12:33:47;22.20;79.10
31819;DHT22;18384;48.860;9.188;2023-10-09T12:36:15;22.20;77.60
31819;DHT22;18384;48.860;9.188;2023-10-09T12:38:48;22.30;77.20
31819;DHT22;18384;48.860;9.188;2023-10-09T12:41:20;22.40;77.20
31819;DHT22;18384;48.860;9.188;2023-10-09T12:43:54;22.50;76.70
31819;DHT22;18384;48.860;9.188;2023-10-09T12:46:21;22.60;78.10
31819;DHT22;18384;48.860;9.188;2023-10-09T12:48:54;22.60;75.80
31819;DHT22;18384;48.860;9.188;2023-10-09T12:51:22;22.60;75.00
31819;DHT22;18384;48.860;9.188;2023-10-09T12:53:51;22.60;75.60
31819;DHT22;18384;48.860;9.188;2023-10-09T12:56:24;22.50;75.30
31819;DHT22;18384;48.860;9.188;2023-10-09T12:59:08;22.40;75.20
31819;DHT22;18384;48.860;9.188;2023-10-09T13:01:43;22.40;76.00
31819;DHT22;18384;48.860;9.188;2023-10-09T13:04:14;22.40;76.40
31819;DHT22;18384;48.860;9.188;2023-10-09T13:06:46;22.40;77.90
31819;DHT22;18384;48.860;9.188;2023-10-09T13:09:16;22.40;77.70
31819;DHT22;18384;48.860;9.188;2023-10-09T13:12:01;22.50;78.50
31819;DHT22;18384;48.860;9.188;2023-10-09T13:14:27;22.50;80.80
31819;DHT22;18384;48.860;9.188;2023-10-09T13:16:54;22.50;79.40
31819;DHT22;18384;48.860;9.188;2023-10-09T13:19:21;22.50;80.70
31819;DHT22;18384;48.860;9.188;2023-10-09T13:21:50;22.50;78.10
31819;DHT22;18384;48.860;9.188;2023-10-09T13:24:16;22.50;78.10
31819;DHT22;18384;48.860;9.188;2023-10-09T13:26:42;23.80;76.50
31819;DHT22;18384;48.860;9.188;2023-10-09T13:29:16;22.40;76.50
31819;DHT22;18384;48.860;9.188;2023-10-09T13:31:48;22.30;73.50
31819;DHT22;18384;48.860;9.188;2023-10-09T13:34:18;22.20;72.00
31819;DHT22;18384;48.860;9.188;2023-10-09T13:36:44;22.20;72.80
31819;DHT22;18384;48.860;9.188;2023-10-09T13:39:19;22.20;71.70
31819;DHT22;18384;48.860;9.188;2023-10-09T13:41:58;22.20;69.20
31819;DHT22;18384;48.860;9.188;2023-10-09T13:44:29;22.30;67.30
31819;DHT22;18384;48.860;9.188;2023-10-09T13:47:02;22.30;63.10
31819;DHT22;18384;48.860;9.188;2023-10-09T13:49:49;22.30;63.20
31819;DHT22;18384;48.860;9.188;2023-10-09T13:52:19;22.40;65.80
31819;DHT22;18384;48.860;9.188;2023-10-09T13:54:49;22.50;65.00
31819;DHT22;18384;48.860;9.188;2023-10-09T13:57:16;22.50;64.40
31819;DHT22;18384;48.860;9.188;2023-10-09T13:59:43;22.60;64.10
31819;DHT22;18384;48.860;9.188;2023-10-09T14:02:16;22.60;60.90
31819;DHT22;18384;48.860;9.188;2023-10-09T14:04:46;22.70;61.20
31819;DHT22;18384;48.860;9.188;2023-10-09T14:07:13;22.70;61.40
31819;DHT22;18384;48.860;9.188;2023-10-09T14:09:43;22.70;61.00
31819;DHT22;18384;48.860;9.188;2023-10-09T14:12:18;22.70;62.80
31819;DHT22;18384;48.860;9.188;2023-10-09T14:14:47;22.80;63.90
31819;DHT22;18384;48.860;9.188;2023-10-09T14:17:15;22.70;62.40
31819;DHT22;18384;48.860;9.188;2023-10-09T14:19:52;22.70;62.50
31819;DHT22;18384;48.860;9.188;2023-10-09T14:22:51;22.70;62.20
31819;DHT22;18384;48.860;9.188;2023-10-09T14:25:17;22.70;63.60
31819;DHT22;18384;48.860;9.188;2023-10-09T14:27:46;22.60;62.40
31819;DHT22;18384;48.860;9.188;2023-10-09T14:30:14;22.70;62.60
31819;DHT22;18384;48.860;9.188;2023-10-09T14:32:49;21.80;62.60
31819;DHT22;18384;48.860;9.188;2023-10-09T14:35:21;22.60;63.00
31819;DHT22;18384;48.860;9.188;2023-10-09T14:37:52;22.60;65.50
31819;DHT22;18384;48.860;9.188;2023-10-09T14:40:22;22.60;64.80
31819;DHT22;18384;48.860;9.188;2023-10-09T14:42:56;22.60;63.90
31819;DHT22;18384;48.860;9.188;2023-10-09T14:45:25;22.60;64.90
31819;DHT22;18384;48.860;9.188;2023-10-09T14:47:52;22.60;63.90
31819;DHT22;18384;48.860;9.188;2023-10-09T14:50:21;22.60;63.00
31819;DHT22;18384;48.860;9.188;2023-10-09T14:52:50;22.60;63.20
31819;DHT22;18384;48.860;9.188;2023-10-09T14:55:16;21.10;62.10
31819;DHT22;18384;48.860;9.188;2023-10-09T14:57:54;22.60;63.30
31819;DHT22;18384;48.860;9.188;2023-10-09T15:00:21;22.60;63.10
31819;DHT22;18384;48.860;9.188;2023-10-09T15:02:52;22.50;63.30
31819;DHT22;18384;48.860;9.188;2023-10-09T15:05:18;22.60;63.30
31819;DHT22;18384;48.860;9.188;2023-10-09T15:07:44;22.60;64.10
31819;DHT22;18384;48.860;9.188;2023-10-09T15:10:11;22.60;63.70
31819;DHT22;18384;48.860;9.188;2023-10-09T15:12:41;22.60;64.30
31819;DHT22;18384;48.860;9.188;2023-10-09T15:15:12;22.50;64.50
31819;DHT22;18384;48.860;9.188;2023-10-09T15:17:42;22.50;66.40
31819;DHT22;18384;48.860;9.188;2023-10-09T15:20:11;22.50;65.80
31819;DHT22;18384;48.860;9.188;2023-10-09T15:22:44;22.40;65.70
31819;DHT22;18384;48.860;9.188;2023-10-09T15:25:12;22.40;66.80
31819;DHT22;18384;48.860;9.188;2023-10-09T15:27:43;22.30;65.50
31819;DHT22;18384;48.860;9.188;2023-10-09T15:30:12;22.30;65.50
31819;DHT22;18384;48.860;9.188;2023-10-09T15:32:42;22.30;65.50
31819;DHT22;18384;48.860;9.188;2023-10-09T15:35:09;22.30;66.50
31819;DHT22;18384;48.860;9.188;2023-10-09T15:37:37;22.20;66.60
31819;DHT22;18384;48.860;9.188;2023-10-09T15:40:07;22.20;66.60
31819;DHT22;18384;48.860;9.188;2023-10-09T15:42:43;22.10;66.30
31819;DHT22;18384;48.860;9.188;2023-10-09T15:45:18;22.10;66.70
31819;DHT22;18384;48.860;9.188;2023-10-09T15:47:52;22.10;67.20
31819;DHT22;18384;48.860;9.188;2023-10-09T15:50:22;22.10;67.10
31819;DHT22;18384;48.860;9.188;2023-10-09T15:52:53;21.20;66.80
31819;DHT22;18384;48.860;9.188;2023-10-09T15:55:25;21.90;68.60
31819;DHT22;18384;48.860;9.188;2023-10-09T15:57:52;21.90;68.10
31819;DHT22;18384;48.860;9.188;2023-10-09T16:00:34;21.90;68.40
31819;DHT22;18384;48.860;9.188;2023-10-09T16:03:00;20.70;68.50
31819;DHT22;18384;48.860;9.188;2023-10-09T16:05:30;21.30;69.10
31819;DHT22;18384;48.860;9.188;2023-10-09T16:08:02;21.60;70.70
31819;DHT22;18384;48.860;9.188;2023-10-09T16:10:33;21.50;69.60
31819;DHT22;18384;48.860;9.188;2023-10-09T16:13:06;21.40;70.80
31819;DHT22;18384;48.860;9.188;2023-10-09T16:15:41;21.30;70.30
31819;DHT22;18384;48.860;9.188;2023-10-09T16:18:10;21.30;71.40
31819;DHT22;18384;48.860;9.188;2023-10-09T16:20:37;21.20;70.90
31819;DHT22;18384;48.860;9.188;2023-10-09T16:23:03;21.10;72.50
31819;DHT22;18384;48.860;9.188;2023-10-09T16:25:31;21.10;71.40
31819;DHT22;18384;48.860;9.188;2023-10-09T16:28:03;20.90;71.70
31819;DHT22;18384;48.860;9.188;2023-10-09T16:30:30;20.90;71.60
31819;DHT22;18384;48.860;9.188;2023-10-09T16:32:56;20.80;71.50
31819;DHT22;18384;48.860;9.188;2023-10-09T16:35:22;21.70;72.10
31819;DHT22;18384;48.860;9.188;2023-10-09T16:37:50;20.70;71.70
31819;DHT22;18384;48.860;9.188;2023-10-09T16:40:16;20.60;71.80
31819;DHT22;18384;48.860;9.188;2023-10-09T16:42:46;20.60;72.20
31819;DHT22;18384;48.860;9.188;2023-10-09T16:45:15;20.50;72.00
31819;DHT22;18384;48.860;9.188;2023-10-09T16:47:49;20.40;73.40
31819;DHT22;18384;48.860;9.188;2023-10-09T16:50:24;20.30;73.90
31819;DHT22;18384;48.860;9.188;2023-10-09T16:52:54;20.30;74.30